sensor_id;sensor_type;location;lat;lon;timestamp;P1;durP1;ratioP1;P2;durP2;ratioP2
33738;SDS011;20063;51.730;11.110;2024-01-10T00:01:36;66.10;;;27.20;;
33738;SDS011;20063;51.730;11.110;2024-01-10T00:04:01;59.15;;;26.27;;
33738;SDS011;20063;51.730;11.110;2024-01-10T00:06:27;56.42;;;24.60;;
33738;SDS011;20063;51.730;11.110;2024-01-10T00:08:53;61.75;;;26.15;;
33738;SDS011;20063;51.730;11.110;2024-01-10T00:11:18;66.88;;;25.65;;
33738;SDS011;20063;51.730;11.110;2024-01-10T00:13:44;70.07;;;26.27;;
33738;SDS011;20063;51.730;11.110;2024-01-10T00:16:14;77.35;;;27.75;;
33738;SDS011;20063;51.730;11.110;2024-01-10T00:18:40;70.78;;;28.20;;
33738;SDS011;20063;51.730;11.110;2024-01-10T00:21:06;69.95;;;26.63;;
33738;SDS011;20063;51.730;11.110;2024-01-10T00:23:32;72.03;;;28.42;;
33738;SDS011;20063;51.730;11.110;2024-01-10T00:25:58;68.78;;;28.08;;
33738;SDS011;20063;51.730;11.110;2024-01-10T00:28:24;75.05;;;30.67;;
33738;SDS011;20063;51.730;11.110;2024-01-10T00:30:50;80.38;;;29.48;;
33738;SDS011;20063;51.730;11.110;2024-01-10T00:33:16;75.32;;;30.70;;
33738;SDS011;20063;51.730;11.110;2024-01-10T00:35:42;77.00;;;29.55;;
33738;SDS011;20063;51.730;11.110;2024-01-10T00:38:08;73.60;;;29.98;;
33738;SDS011;20063;51.730;11.110;2024-01-10T00:40:34;70.20;;;29.00;;
33738;SDS011;20063;51.730;11.110;2024-01-10T00:43:03;77.57;;;29.25;;
33738;SDS011;20063;51.730;11.110;2024-01-10T00:45:29;83.32;;;29.95;;
33738;SDS011;20063;51.730;11.110;2024-01-10T00:47:54;70.80;;;29.17;;
33738;SDS011;20063;51.730;11.110;2024-01-10T00:50:20;77.47;;;30.00;;
33738;SDS011;20063;51.730;11.110;2024-01-10T00:52:46;70.25;;;28.77;;
33738;SDS011;20063;51.730;11.110;2024-01-10T00:55:11;69.38;;;27.67;;
33738;SDS011;20063;51.730;11.110;2024-01-10T00:57:40;65.35;;;26.20;;
33738;SDS011;20063;51.730;11.110;2024-01-10T01:00:10;67.40;;;28.00;;
33738;SDS011;20063;51.730;11.110;2024-01-10T01:02:36;62.92;;;26.42;;
33738;SDS011;20063;51.730;11.110;2024-01-10T01:05:05;71.22;;;28.92;;
33738;SDS011;20063;51.730;11.110;2024-01-10T01:07:34;65.68;;;27.55;;
33738;SDS011;20063;51.730;11.110;2024-01-10T01:10:00;57.33;;;24.45;;
33738;SDS011;20063;51.730;11.110;2024-01-10T01:12:29;72.35;;;26.33;;
33738;SDS011;20063;51.730;11.110;2024-01-10T01:14:54;73.50;;;29.17;;
33738;SDS011;20063;51.730;11.110;2024-01-10T01:17:20;69.45;;;26.10;;
33738;SDS011;20063;51.730;11.110;2024-01-10T01:19:45;80.93;;;30.45;;
33738;SDS011;20063;51.730;11.110;2024-01-10T01:22:11;77.22;;;29.73;;
33738;SDS011;20063;51.730;11.110;2024-01-10T01:24:36;58.88;;;25.38;;
33738;SDS011;20063;51.730;11.110;2024-01-10T01:27:02;78.18;;;30.48;;
33738;SDS011;20063;51.730;11.110;2024-01-10T01:29:28;92.95;;;31.90;;
33738;SDS011;20063;51.730;11.110;2024-01-10T01:31:54;85.00;;;32.13;;
33738;SDS011;20063;51.730;11.110;2024-01-10T01:34:19;79.65;;;29.90;;
33738;SDS011;20063;51.730;11.110;2024-01-10T01:36:45;73.82;;;30.00;;
33738;SDS011;20063;51.730;11.110;2024-01-10T01:39:11;81.13;;;28.02;;
33738;SDS011;20063;51.730;11.110;2024-01-10T01:41:39;86.80;;;32.28;;
33738;SDS011;20063;51.730;11.110;2024-01-10T01:44:05;71.07;;;29.13;;
33738;SDS011;20063;51.730;11.110;2024-01-10T01:46:31;87.32;;;32.25;;
33738;SDS011;20063;51.730;11.110;2024-01-10T01:48:58;75.67;;;31.73;;
33738;SDS011;20063;51.730;11.110;2024-01-10T01:51:24;79.17;;;30.17;;
33738;SDS011;20063;51.730;11.110;2024-01-10T01:53:53;77.72;;;31.67;;
33738;SDS011;20063;51.730;11.110;2024-01-10T01:56:19;82.63;;;31.08;;
33738;SDS011;20063;51.730;11.110;2024-01-10T01:58:45;70.68;;;29.88;;
33738;SDS011;20063;51.730;11.110;2024-01-10T02:01:12;80.75;;;30.13;;
33738;SDS011;20063;51.730;11.110;2024-01-10T02:03:37;73.57;;;29.25;;
33738;SDS011;20063;51.730;11.110;2024-01-10T02:06:03;83.18;;;32.97;;
33738;SDS011;20063;51.730;11.110;2024-01-10T02:08:33;70.63;;;29.45;;
33738;SDS011;20063;51.730;11.110;2024-01-10T02:11:01;85.03;;;32.17;;
33738;SDS011;20063;51.730;11.110;2024-01-10T02:13:28;92.88;;;31.33;;
33738;SDS011;20063;51.730;11.110;2024-01-10T02:15:54;91.65;;;35.55;;
33738;SDS011;20063;51.730;11.110;2024-01-10T02:18:20;90.40;;;34.30;;
33738;SDS011;20063;51.730;11.110;2024-01-10T02:20:47;69.50;;;31.70;;
33738;SDS011;20063;51.730;11.110;2024-01-10T02:26:34;85.60;;;32.42;;
33738;SDS011;20063;51.730;11.110;2024-01-10T02:29:01;90.53;;;32.13;;
33738;SDS011;20063;51.730;11.110;2024-01-10T02:31:26;82.57;;;32.80;;
33738;SDS011;20063;51.730;11.110;2024-01-10T02:33:52;78.05;;;31.98;;
33738;SDS011;20063;51.730;11.110;2024-01-10T02:36:18;75.88;;;31.52;;
33738;SDS011;20063;51.730;11.110;2024-01-10T02:38:43;79.32;;;29.40;;
33738;SDS011;20063;51.730;11.110;2024-01-10T02:41:09;77.78;;;30.75;;
33738;SDS011;20063;51.730;11.110;2024-01-10T02:43:37;83.60;;;32.53;;
33738;SDS011;20063;51.730;11.110;2024-01-10T02:46:03;82.63;;;31.10;;
33738;SDS011;20063;51.730;11.110;2024-01-10T02:48:29;84.40;;;31.45;;
33738;SDS011;20063;51.730;11.110;2024-01-10T02:50:54;71.93;;;30.05;;
33738;SDS011;20063;51.730;11.110;2024-01-10T02:53:24;77.80;;;33.35;;
33738;SDS011;20063;51.730;11.110;2024-01-10T02:55:50;78.85;;;31.58;;
33738;SDS011;20063;51.730;11.110;2024-01-10T02:58:15;87.75;;;33.90;;
33738;SDS011;20063;51.730;11.110;2024-01-10T03:00:41;89.55;;;36.17;;
33738;SDS011;20063;51.730;11.110;2024-01-10T03:03:06;88.55;;;33.20;;
33738;SDS011;20063;51.730;11.110;2024-01-10T03:05:32;83.57;;;35.88;;
33738;SDS011;20063;51.730;11.110;2024-01-10T03:07:57;93.95;;;34.20;;
33738;SDS011;20063;51.730;11.110;2024-01-10T03:10:23;99.10;;;34.05;;
33738;SDS011;20063;51.730;11.110;2024-01-10T03:12:49;82.80;;;32.75;;
33738;SDS011;20063;51.730;11.110;2024-01-10T03:15:14;97.70;;;38.13;;
33738;SDS011;20063;51.730;11.110;2024-01-10T03:17:43;104.53;;;40.72;;
33738;SDS011;20063;51.730;11.110;2024-01-10T03:20:08;104.20;;;39.60;;
33738;SDS011;20063;51.730;11.110;2024-01-10T03:22:34;100.28;;;38.53;;
33738;SDS011;20063;51.730;11.110;2024-01-10T03:25:00;96.70;;;36.42;;
33738;SDS011;20063;51.730;11.110;2024-01-10T03:27:26;103.05;;;40.15;;
33738;SDS011;20063;51.730;11.110;2024-01-10T03:29:51;111.30;;;41.63;;
33738;SDS011;20063;51.730;11.110;2024-01-10T03:32:17;109.30;;;38.72;;
33738;SDS011;20063;51.730;11.110;2024-01-10T03:34:42;103.15;;;39.80;;
33738;SDS011;20063;51.730;11.110;2024-01-10T03:37:08;103.43;;;36.08;;
33738;SDS011;20063;51.730;11.110;2024-01-10T03:39:33;96.05;;;34.83;;
33738;SDS011;20063;51.730;11.110;2024-01-10T03:41:59;84.80;;;35.15;;
33738;SDS011;20063;51.730;11.110;2024-01-10T03:44:26;97.88;;;35.63;;
33738;SDS011;20063;51.730;11.110;2024-01-10T03:46:51;98.45;;;37.83;;
33738;SDS011;20063;51.730;11.110;2024-01-10T03:49:17;95.90;;;40.10;;
33738;SDS011;20063;51.730;11.110;2024-01-10T03:51:43;100.25;;;39.10;;
33738;SDS011;20063;51.730;11.110;2024-01-10T03:54:08;110.03;;;40.15;;
33738;SDS011;20063;51.730;11.110;2024-01-10T03:56:34;94.90;;;36.92;;
33738;SDS011;20063;51.730;11.110;2024-01-10T03:59:00;120.45;;;42.63;;
33738;SDS011;20063;51.730;11.110;2024-01-10T04:01:26;91.05;;;36.72;;
33738;SDS011;20063;51.730;11.110;2024-01-10T04:03:52;90.25;;;35.92;;
33738;SDS011;20063;51.730;11.110;2024-01-10T04:06:20;109.65;;;41.42;;
33738;SDS011;20063;51.730;11.110;2024-01-10T04:08:46;109.22;;;39.22;;
33738;SDS011;20063;51.730;11.110;2024-01-10T04:11:11;94.85;;;37.88;;
33738;SDS011;20063;51.730;11.110;2024-01-10T04:13:37;102.47;;;37.70;;
33738;SDS011;20063;51.730;11.110;2024-01-10T04:16:03;109.45;;;39.03;;
33738;SDS011;20063;51.730;11.110;2024-01-10T04:18:28;111.80;;;41.65;;
33738;SDS011;20063;51.730;11.110;2024-01-10T04:20:54;108.95;;;40.17;;
33738;SDS011;20063;51.730;11.110;2024-01-10T04:23:20;102.88;;;38.67;;
33738;SDS011;20063;51.730;11.110;2024-01-10T04:25:45;102.30;;;36.83;;
33738;SDS011;20063;51.730;11.110;2024-01-10T04:28:11;101.07;;;36.97;;
33738;SDS011;20063;51.730;11.110;2024-01-10T04:30:36;116.85;;;40.00;;
33738;SDS011;20063;51.730;11.110;2024-01-10T04:33:02;108.05;;;40.38;;
33738;SDS011;20063;51.730;11.110;2024-01-10T04:35:28;106.30;;;39.20;;
33738;SDS011;20063;51.730;11.110;2024-01-10T04:37:53;108.72;;;42.05;;
33738;SDS011;20063;51.730;11.110;2024-01-10T04:40:21;100.55;;;39.42;;
33738;SDS011;20063;51.730;11.110;2024-01-10T04:42:46;112.90;;;40.33;;
33738;SDS011;20063;51.730;11.110;2024-01-10T04:45:12;112.15;;;42.97;;
33738;SDS011;20063;51.730;11.110;2024-01-10T04:47:37;109.53;;;41.88;;
33738;SDS011;20063;51.730;11.110;2024-01-10T04:50:03;113.18;;;43.08;;
33738;SDS011;20063;51.730;11.110;2024-01-10T04:52:29;120.13;;;43.28;;
33738;SDS011;20063;51.730;11.110;2024-01-10T04:54:55;104.03;;;40.63;;
33738;SDS011;20063;51.730;11.110;2024-01-10T04:57:21;105.45;;;39.70;;
33738;SDS011;20063;51.730;11.110;2024-01-10T04:59:47;103.60;;;41.23;;
33738;SDS011;20063;51.730;11.110;2024-01-10T05:02:14;105.53;;;37.80;;
33738;SDS011;20063;51.730;11.110;2024-01-10T05:04:39;106.85;;;39.33;;
33738;SDS011;20063;51.730;11.110;2024-01-10T05:07:06;109.47;;;40.93;;
33738;SDS011;20063;51.730;11.110;2024-01-10T05:09:32;109.45;;;40.38;;
33738;SDS011;20063;51.730;11.110;2024-01-10T05:11:57;102.90;;;39.90;;
33738;SDS011;20063;51.730;11.110;2024-01-10T05:14:23;96.70;;;36.73;;
33738;SDS011;20063;51.730;11.110;2024-01-10T05:16:51;105.88;;;37.08;;
33738;SDS011;20063;51.730;11.110;2024-01-10T05:19:18;95.75;;;36.88;;
33738;SDS011;20063;51.730;11.110;2024-01-10T05:21:44;112.18;;;39.85;;
33738;SDS011;20063;51.730;11.110;2024-01-10T05:24:10;107.05;;;38.45;;
33738;SDS011;20063;51.730;11.110;2024-01-10T05:26:36;116.60;;;40.53;;
33738;SDS011;20063;51.730;11.110;2024-01-10T05:29:02;96.05;;;38.00;;
33738;SDS011;20063;51.730;11.110;2024-01-10T05:31:27;111.90;;;39.00;;
33738;SDS011;20063;51.730;11.110;2024-01-10T05:33:53;107.82;;;40.55;;
33738;SDS011;20063;51.730;11.110;2024-01-10T05:36:22;112.10;;;40.83;;
33738;SDS011;20063;51.730;11.110;2024-01-10T05:38:48;106.73;;;41.93;;
33738;SDS011;20063;51.730;11.110;2024-01-10T05:41:14;108.18;;;42.15;;
33738;SDS011;20063;51.730;11.110;2024-01-10T05:43:40;115.65;;;40.92;;
33738;SDS011;20063;51.730;11.110;2024-01-10T05:46:06;116.30;;;41.30;;
33738;SDS011;20063;51.730;11.110;2024-01-10T05:48:31;105.13;;;39.97;;
33738;SDS011;20063;51.730;11.110;2024-01-10T05:50:57;107.68;;;41.63;;
33738;SDS011;20063;51.730;11.110;2024-01-10T05:53:23;105.53;;;40.03;;
33738;SDS011;20063;51.730;11.110;2024-01-10T05:55:50;101.47;;;39.17;;
33738;SDS011;20063;51.730;11.110;2024-01-10T05:58:16;112.35;;;42.38;;
33738;SDS011;20063;51.730;11.110;2024-01-10T06:00:41;98.90;;;39.75;;
33738;SDS011;20063;51.730;11.110;2024-01-10T06:03:07;95.80;;;37.72;;
33738;SDS011;20063;51.730;11.110;2024-01-10T06:05:33;121.27;;;43.13;;
33738;SDS011;20063;51.730;11.110;2024-01-10T06:07:58;111.63;;;43.05;;
33738;SDS011;20063;51.730;11.110;2024-01-10T06:10:24;112.13;;;41.93;;
33738;SDS011;20063;51.730;11.110;2024-01-10T06:12:49;107.40;;;39.07;;
33738;SDS011;20063;51.730;11.110;2024-01-10T06:15:16;91.27;;;36.70;;
33738;SDS011;20063;51.730;11.110;2024-01-10T06:17:45;117.17;;;41.10;;
33738;SDS011;20063;51.730;11.110;2024-01-10T06:20:10;106.03;;;40.67;;
33738;SDS011;20063;51.730;11.110;2024-01-10T06:22:36;102.80;;;39.47;;
33738;SDS011;20063;51.730;11.110;2024-01-10T06:25:02;114.55;;;40.70;;
33738;SDS011;20063;51.730;11.110;2024-01-10T06:27:28;107.33;;;40.13;;
33738;SDS011;20063;51.730;11.110;2024-01-10T06:29:55;104.53;;;38.83;;
33738;SDS011;20063;51.730;11.110;2024-01-10T06:32:21;101.60;;;38.90;;
33738;SDS011;20063;51.730;11.110;2024-01-10T06:34:47;92.20;;;36.08;;
33738;SDS011;20063;51.730;11.110;2024-01-10T06:37:12;104.65;;;38.40;;
33738;SDS011;20063;51.730;11.110;2024-01-10T06:39:38;102.90;;;39.85;;
33738;SDS011;20063;51.730;11.110;2024-01-10T06:42:03;97.93;;;40.20;;
33738;SDS011;20063;51.730;11.110;2024-01-10T06:44:31;114.32;;;40.00;;
33738;SDS011;20063;51.730;11.110;2024-01-10T06:46:56;115.03;;;39.95;;
33738;SDS011;20063;51.730;11.110;2024-01-10T06:49:22;105.70;;;40.40;;
33738;SDS011;20063;51.730;11.110;2024-01-10T06:51:48;117.82;;;43.80;;
33738;SDS011;20063;51.730;11.110;2024-01-10T06:54:14;109.18;;;39.47;;
33738;SDS011;20063;51.730;11.110;2024-01-10T06:56:39;97.82;;;40.03;;
33738;SDS011;20063;51.730;11.110;2024-01-10T06:59:06;118.40;;;41.83;;
33738;SDS011;20063;51.730;11.110;2024-01-10T07:01:31;108.93;;;44.53;;
33738;SDS011;20063;51.730;11.110;2024-01-10T07:03:57;95.57;;;40.47;;
33738;SDS011;20063;51.730;11.110;2024-01-10T07:06:22;116.40;;;41.80;;
33738;SDS011;20063;51.730;11.110;2024-01-10T07:08:49;109.82;;;40.30;;
33738;SDS011;20063;51.730;11.110;2024-01-10T07:11:17;119.60;;;43.65;;
33738;SDS011;20063;51.730;11.110;2024-01-10T07:13:49;113.65;;;42.03;;
33738;SDS011;20063;51.730;11.110;2024-01-10T07:16:15;116.20;;;43.25;;
33738;SDS011;20063;51.730;11.110;2024-01-10T07:18:42;108.00;;;39.57;;
33738;SDS011;20063;51.730;11.110;2024-01-10T07:21:08;103.45;;;40.15;;
33738;SDS011;20063;51.730;11.110;2024-01-10T07:23:34;108.03;;;43.53;;
33738;SDS011;20063;51.730;11.110;2024-01-10T07:26:00;124.20;;;46.37;;
33738;SDS011;20063;51.730;11.110;2024-01-10T07:28:26;117.43;;;42.92;;
33738;SDS011;20063;51.730;11.110;2024-01-10T07:30:51;109.65;;;40.20;;
33738;SDS011;20063;51.730;11.110;2024-01-10T07:33:17;126.20;;;47.65;;
33738;SDS011;20063;51.730;11.110;2024-01-10T07:35:55;114.77;;;42.73;;
33738;SDS011;20063;51.730;11.110;2024-01-10T07:38:22;98.40;;;39.57;;
33738;SDS011;20063;51.730;11.110;2024-01-10T07:40:48;119.43;;;44.37;;
33738;SDS011;20063;51.730;11.110;2024-01-10T07:43:13;110.80;;;42.77;;
33738;SDS011;20063;51.730;11.110;2024-01-10T07:45:39;101.35;;;41.17;;
33738;SDS011;20063;51.730;11.110;2024-01-10T07:48:05;132.73;;;47.60;;
33738;SDS011;20063;51.730;11.110;2024-01-10T07:50:30;106.03;;;41.17;;
33738;SDS011;20063;51.730;11.110;2024-01-10T07:52:56;131.02;;;44.38;;
33738;SDS011;20063;51.730;11.110;2024-01-10T07:55:21;100.95;;;40.45;;
33738;SDS011;20063;51.730;11.110;2024-01-10T07:57:47;119.93;;;46.42;;
33738;SDS011;20063;51.730;11.110;2024-01-10T08:00:13;105.47;;;40.53;;
33738;SDS011;20063;51.730;11.110;2024-01-10T08:02:46;98.13;;;40.13;;
33738;SDS011;20063;51.730;11.110;2024-01-10T08:05:12;119.50;;;39.83;;
33738;SDS011;20063;51.730;11.110;2024-01-10T08:07:38;105.70;;;41.30;;
33738;SDS011;20063;51.730;11.110;2024-01-10T08:10:07;96.82;;;38.80;;
33738;SDS011;20063;51.730;11.110;2024-01-10T08:12:34;135.43;;;42.95;;
33738;SDS011;20063;51.730;11.110;2024-01-10T08:15:04;108.47;;;40.58;;
33738;SDS011;20063;51.730;11.110;2024-01-10T08:17:31;114.50;;;46.08;;
33738;SDS011;20063;51.730;11.110;2024-01-10T08:19:58;117.22;;;44.03;;
33738;SDS011;20063;51.730;11.110;2024-01-10T08:22:24;119.90;;;45.00;;
33738;SDS011;20063;51.730;11.110;2024-01-10T08:24:49;116.72;;;46.42;;
33738;SDS011;20063;51.730;11.110;2024-01-10T08:27:15;124.93;;;48.08;;
33738;SDS011;20063;51.730;11.110;2024-01-10T08:29:42;120.77;;;45.10;;
33738;SDS011;20063;51.730;11.110;2024-01-10T08:32:07;127.75;;;48.10;;
33738;SDS011;20063;51.730;11.110;2024-01-10T08:34:33;154.07;;;51.03;;
33738;SDS011;20063;51.730;11.110;2024-01-10T08:36:58;124.50;;;47.40;;
33738;SDS011;20063;51.730;11.110;2024-01-10T08:39:24;117.38;;;49.45;;
33738;SDS011;20063;51.730;11.110;2024-01-10T08:41:53;134.80;;;48.22;;
33738;SDS011;20063;51.730;11.110;2024-01-10T08:44:21;136.77;;;50.45;;
33738;SDS011;20063;51.730;11.110;2024-01-10T08:46:47;143.63;;;52.60;;
33738;SDS011;20063;51.730;11.110;2024-01-10T08:49:13;125.38;;;47.50;;
33738;SDS011;20063;51.730;11.110;2024-01-10T08:51:39;134.52;;;51.88;;
33738;SDS011;20063;51.730;11.110;2024-01-10T08:54:06;131.48;;;49.47;;
33738;SDS011;20063;51.730;11.110;2024-01-10T08:56:31;129.10;;;50.53;;
33738;SDS011;20063;51.730;11.110;2024-01-10T08:58:57;115.13;;;46.78;;
33738;SDS011;20063;51.730;11.110;2024-01-10T09:01:23;132.07;;;48.78;;
33738;SDS011;20063;51.730;11.110;2024-01-10T09:03:48;130.95;;;48.45;;
33738;SDS011;20063;51.730;11.110;2024-01-10T09:06:15;115.05;;;45.30;;
33738;SDS011;20063;51.730;11.110;2024-01-10T09:08:42;145.13;;;52.97;;
33738;SDS011;20063;51.730;11.110;2024-01-10T09:11:08;140.68;;;53.65;;
33738;SDS011;20063;51.730;11.110;2024-01-10T09:13:34;135.82;;;53.75;;
33738;SDS011;20063;51.730;11.110;2024-01-10T09:15:59;132.35;;;53.85;;
33738;SDS011;20063;51.730;11.110;2024-01-10T09:18:25;139.73;;;53.40;;
33738;SDS011;20063;51.730;11.110;2024-01-10T09:20:51;148.40;;;56.47;;
33738;SDS011;20063;51.730;11.110;2024-01-10T09:23:16;151.70;;;58.53;;
33738;SDS011;20063;51.730;11.110;2024-01-10T09:25:43;159.38;;;61.17;;
33738;SDS011;20063;51.730;11.110;2024-01-10T09:28:09;158.25;;;56.63;;
33738;SDS011;20063;51.730;11.110;2024-01-10T09:30:35;145.65;;;56.60;;
33738;SDS011;20063;51.730;11.110;2024-01-10T09:33:00;151.70;;;58.85;;
33738;SDS011;20063;51.730;11.110;2024-01-10T09:35:26;147.77;;;57.67;;
33738;SDS011;20063;51.730;11.110;2024-01-10T09:37:52;147.70;;;58.60;;
33738;SDS011;20063;51.730;11.110;2024-01-10T09:40:21;153.35;;;60.05;;
33738;SDS011;20063;51.730;11.110;2024-01-10T09:42:49;145.18;;;57.92;;
33738;SDS011;20063;51.730;11.110;2024-01-10T09:45:16;171.88;;;62.58;;
33738;SDS011;20063;51.730;11.110;2024-01-10T09:47:45;164.93;;;59.00;;
33738;SDS011;20063;51.730;11.110;2024-01-10T09:50:15;153.25;;;60.65;;
33738;SDS011;20063;51.730;11.110;2024-01-10T09:55:33;151.15;;;59.55;;
33738;SDS011;20063;51.730;11.110;2024-01-10T09:58:09;157.65;;;58.92;;
33738;SDS011;20063;51.730;11.110;2024-01-10T10:00:35;155.20;;;59.70;;
33738;SDS011;20063;51.730;11.110;2024-01-10T10:03:04;151.45;;;57.03;;
33738;SDS011;20063;51.730;11.110;2024-01-10T10:05:33;142.77;;;54.67;;
33738;SDS011;20063;51.730;11.110;2024-01-10T10:08:00;151.52;;;57.35;;
33738;SDS011;20063;51.730;11.110;2024-01-10T10:10:28;148.23;;;58.15;;
33738;SDS011;20063;51.730;11.110;2024-01-10T10:12:54;137.48;;;56.40;;
33738;SDS011;20063;51.730;11.110;2024-01-10T10:15:23;137.98;;;58.92;;
33738;SDS011;20063;51.730;11.110;2024-01-10T10:17:51;141.40;;;56.97;;
33738;SDS011;20063;51.730;11.110;2024-01-10T10:20:28;151.90;;;58.83;;
33738;SDS011;20063;51.730;11.110;2024-01-10T10:25:31;150.02;;;56.55;;
33738;SDS011;20063;51.730;11.110;2024-01-10T10:28:11;149.00;;;58.83;;
33738;SDS011;20063;51.730;11.110;2024-01-10T10:30:36;132.27;;;54.53;;
33738;SDS011;20063;51.730;11.110;2024-01-10T10:33:02;130.77;;;55.50;;
33738;SDS011;20063;51.730;11.110;2024-01-10T10:35:28;146.02;;;58.45;;
33738;SDS011;20063;51.730;11.110;2024-01-10T10:37:54;138.40;;;58.67;;
33738;SDS011;20063;51.730;11.110;2024-01-10T10:40:20;135.55;;;55.63;;
33738;SDS011;20063;51.730;11.110;2024-01-10T10:42:54;135.98;;;57.75;;
33738;SDS011;20063;51.730;11.110;2024-01-10T10:45:21;148.60;;;55.75;;
33738;SDS011;20063;51.730;11.110;2024-01-10T10:47:57;141.73;;;58.08;;
33738;SDS011;20063;51.730;11.110;2024-01-10T10:50:26;139.50;;;53.50;;
33738;SDS011;20063;51.730;11.110;2024-01-10T10:52:54;139.52;;;55.88;;
33738;SDS011;20063;51.730;11.110;2024-01-10T10:55:23;145.00;;;57.30;;
33738;SDS011;20063;51.730;11.110;2024-01-10T10:57:51;138.93;;;55.67;;
33738;SDS011;20063;51.730;11.110;2024-01-10T11:00:19;146.68;;;57.17;;
33738;SDS011;20063;51.730;11.110;2024-01-10T11:02:52;146.68;;;55.30;;
33738;SDS011;20063;51.730;11.110;2024-01-10T11:05:19;137.82;;;54.05;;
33738;SDS011;20063;51.730;11.110;2024-01-10T11:07:45;149.60;;;56.65;;
33738;SDS011;20063;51.730;11.110;2024-01-10T11:10:19;134.40;;;54.00;;
33738;SDS011;20063;51.730;11.110;2024-01-10T11:15:24;163.38;;;62.10;;
33738;SDS011;20063;51.730;11.110;2024-01-10T11:20:38;145.88;;;56.00;;
33738;SDS011;20063;51.730;11.110;2024-01-10T11:26:09;138.02;;;55.67;;
33738;SDS011;20063;51.730;11.110;2024-01-10T11:28:36;154.90;;;59.03;;
33738;SDS011;20063;51.730;11.110;2024-01-10T11:31:05;146.90;;;57.10;;
33738;SDS011;20063;51.730;11.110;2024-01-10T11:33:33;151.30;;;60.50;;
33738;SDS011;20063;51.730;11.110;2024-01-10T11:36:19;144.38;;;60.00;;
33738;SDS011;20063;51.730;11.110;2024-01-10T11:41:25;154.57;;;62.63;;
33738;SDS011;20063;51.730;11.110;2024-01-10T11:46:39;158.50;;;61.85;;
33738;SDS011;20063;51.730;11.110;2024-01-10T11:49:08;154.68;;;63.67;;
33738;SDS011;20063;51.730;11.110;2024-01-10T11:51:35;152.98;;;61.85;;
33738;SDS011;20063;51.730;11.110;2024-01-10T11:54:02;163.32;;;60.97;;
33738;SDS011;20063;51.730;11.110;2024-01-10T11:56:40;146.00;;;62.50;;
33738;SDS011;20063;51.730;11.110;2024-01-10T11:59:11;152.25;;;61.88;;
33738;SDS011;20063;51.730;11.110;2024-01-10T12:01:41;158.50;;;62.88;;
33738;SDS011;20063;51.730;11.110;2024-01-10T12:04:08;156.73;;;62.25;;
33738;SDS011;20063;51.730;11.110;2024-01-10T12:06:36;136.02;;;58.67;;
33738;SDS011;20063;51.730;11.110;2024-01-10T12:09:03;142.80;;;60.65;;
33738;SDS011;20063;51.730;11.110;2024-01-10T12:11:39;154.55;;;63.47;;
33738;SDS011;20063;51.730;11.110;2024-01-10T12:14:06;161.85;;;62.70;;
33738;SDS011;20063;51.730;11.110;2024-01-10T12:16:33;158.95;;;63.45;;
33738;SDS011;20063;51.730;11.110;2024-01-10T12:18:58;151.43;;;60.42;;
33738;SDS011;20063;51.730;11.110;2024-01-10T12:21:24;159.60;;;64.20;;
33738;SDS011;20063;51.730;11.110;2024-01-10T12:23:50;155.55;;;62.13;;
33738;SDS011;20063;51.730;11.110;2024-01-10T12:26:16;150.35;;;61.25;;
33738;SDS011;20063;51.730;11.110;2024-01-10T12:28:53;161.35;;;65.10;;
33738;SDS011;20063;51.730;11.110;2024-01-10T12:31:23;153.35;;;66.65;;
33738;SDS011;20063;51.730;11.110;2024-01-10T12:33:51;171.30;;;69.82;;
33738;SDS011;20063;51.730;11.110;2024-01-10T12:36:17;154.80;;;65.72;;
33738;SDS011;20063;51.730;11.110;2024-01-10T12:38:44;151.85;;;62.25;;
33738;SDS011;20063;51.730;11.110;2024-01-10T12:41:10;160.77;;;61.28;;
33738;SDS011;20063;51.730;11.110;2024-01-10T12:43:36;151.52;;;62.25;;
33738;SDS011;20063;51.730;11.110;2024-01-10T12:46:06;149.45;;;61.03;;
33738;SDS011;20063;51.730;11.110;2024-01-10T12:48:33;148.80;;;63.22;;
33738;SDS011;20063;51.730;11.110;2024-01-10T12:51:02;164.20;;;66.22;;
33738;SDS011;20063;51.730;11.110;2024-01-10T12:53:34;155.20;;;61.38;;
33738;SDS011;20063;51.730;11.110;2024-01-10T12:56:01;155.10;;;63.10;;
33738;SDS011;20063;51.730;11.110;2024-01-10T12:58:29;154.02;;;64.85;;
33738;SDS011;20063;51.730;11.110;2024-01-10T13:00:55;155.00;;;65.32;;
33738;SDS011;20063;51.730;11.110;2024-01-10T13:03:21;152.43;;;63.00;;
33738;SDS011;20063;51.730;11.110;2024-01-10T13:05:48;156.20;;;62.78;;
33738;SDS011;20063;51.730;11.110;2024-01-10T13:08:14;156.48;;;61.10;;
33738;SDS011;20063;51.730;11.110;2024-01-10T13:10:41;152.70;;;62.60;;
33738;SDS011;20063;51.730;11.110;2024-01-10T13:13:07;152.15;;;60.97;;
33738;SDS011;20063;51.730;11.110;2024-01-10T13:15:33;149.20;;;62.17;;
33738;SDS011;20063;51.730;11.110;2024-01-10T13:17:59;157.73;;;63.85;;
33738;SDS011;20063;51.730;11.110;2024-01-10T13:20:24;166.25;;;65.50;;
33738;SDS011;20063;51.730;11.110;2024-01-10T13:22:52;144.43;;;60.30;;
33738;SDS011;20063;51.730;11.110;2024-01-10T13:25:18;152.85;;;62.65;;
33738;SDS011;20063;51.730;11.110;2024-01-10T13:27:48;169.70;;;68.22;;
33738;SDS011;20063;51.730;11.110;2024-01-10T13:30:17;152.25;;;60.75;;
33738;SDS011;20063;51.730;11.110;2024-01-10T13:32:43;161.95;;;63.15;;
33738;SDS011;20063;51.730;11.110;2024-01-10T13:35:13;158.90;;;65.07;;
33738;SDS011;20063;51.730;11.110;2024-01-10T13:37:39;138.73;;;58.60;;
33738;SDS011;20063;51.730;11.110;2024-01-10T13:40:11;143.80;;;62.58;;
33738;SDS011;20063;51.730;11.110;2024-01-10T13:42:48;147.68;;;63.00;;
33738;SDS011;20063;51.730;11.110;2024-01-10T13:45:15;154.05;;;64.65;;
33738;SDS011;20063;51.730;11.110;2024-01-10T13:47:42;147.48;;;60.95;;
33738;SDS011;20063;51.730;11.110;2024-01-10T13:50:08;149.05;;;63.65;;
33738;SDS011;20063;51.730;11.110;2024-01-10T13:52:34;155.15;;;64.25;;
33738;SDS011;20063;51.730;11.110;2024-01-10T13:55:01;143.50;;;61.58;;
33738;SDS011;20063;51.730;11.110;2024-01-10T13:57:29;146.13;;;64.28;;
33738;SDS011;20063;51.730;11.110;2024-01-10T13:59:57;165.10;;;67.82;;
33738;SDS011;20063;51.730;11.110;2024-01-10T14:02:24;171.10;;;70.55;;
33738;SDS011;20063;51.730;11.110;2024-01-10T14:04:50;166.57;;;66.72;;
33738;SDS011;20063;51.730;11.110;2024-01-10T14:07:17;154.75;;;63.28;;
33738;SDS011;20063;51.730;11.110;2024-01-10T14:09:42;163.75;;;64.45;;
33738;SDS011;20063;51.730;11.110;2024-01-10T14:12:08;166.23;;;64.57;;
33738;SDS011;20063;51.730;11.110;2024-01-10T14:14:34;147.10;;;58.58;;
33738;SDS011;20063;51.730;11.110;2024-01-10T14:16:59;169.05;;;65.22;;
33738;SDS011;20063;51.730;11.110;2024-01-10T14:19:25;148.75;;;62.97;;
33738;SDS011;20063;51.730;11.110;2024-01-10T14:21:51;145.52;;;58.70;;